Time;durP1;ratioP1;P1;durP2;ratioP2;P2;SDS_P1;SDS_P2;PMS_P1;PMS_P2;Temp;Humidity;BMP_temperature;BMP_pressure;BME280_temperature;BME280_humidity;BME280_pressure;Samples;Min_cycle;Max_cycle;Signal;HPM_P1;HPM_P2
2023/04/16 00:02:00;;;;;;;25.30;12.20;;;;;;;;;;25475;292;3006135;-30
2023/04/16 00:04:28;;;;;;;20.30;10.00;;;;;;;;;;25552;292;3007512;-33
2023/04/16 00:06:56;;;;;;;24.30;11.00;;;;;;;;;;25410;292;3005002;-34
2023/04/16 00:09:24;;;;;;;17.40;9.60;;;;;;;;;;25580;292;3003773;-30
2023/04/16 00:11:52;;;;;;;17.90;8.60;;;;;;;;;;25645;291;3003718;-34
2023/04/16 00:14:20;;;;;;;25.10;10.40;;;;;;;;;;25650;291;3005039;-30
2023/04/16 00:16:48;;;;;;;20.50;11.40;;;;;;;;;;25419;343;3005341;-29
2023/04/16 00:19:16;;;;;;;18.10;11.30;;;;;;;;;;25361;292;3004989;-30
2023/04/16 00:21:44;;;;;;;25.20;11.20;;;;;;;;;;25517;292;3004975;-34
2023/04/16 00:24:12;;;;;;;18.70;11.00;;;;;;;;;;25543;292;3004922;-30
2023/04/16 00:26:43;;;;;;;25.90;13.20;;;;;;;;;;25645;291;3004346;-29
2023/04/16 00:29:11;;;;;;;15.80;9.30;;;;;;;;;;25245;292;3004520;-31
2023/04/16 00:31:38;;;;;;;25.40;11.90;;;;;;;;;;25339;332;3004976;-31
2023/04/16 00:34:06;;;;;;;25.50;13.00;;;;;;;;;;25689;291;3006209;-30
2023/04/16 00:36:35;;;;;;;22.00;12.00;;;;;;;;;;25460;292;3006157;-30
2023/04/16 00:39:03;;;;;;;22.70;10.40;;;;;;;;;;25567;292;3003515;-31
2023/04/16 00:41:31;;;;;;;24.00;10.20;;;;;;;;;;25622;292;3006432;-34
2023/04/16 00:43:59;;;;;;;14.60;9.30;;;;;;;;;;25624;292;3003580;-31
2023/04/16 00:46:27;;;;;;;11.00;7.60;;;;;;;;;;25666;292;3006014;-32
2023/04/16 00:48:55;;;;;;;14.40;8.50;;;;;;;;;;25354;284;3005949;-36
2023/04/16 00:51:23;;;;;;;21.60;10.50;;;;;;;;;;25610;292;3004768;-30
2023/04/16 00:53:51;;;;;;;19.10;11.20;;;;;;;;;;25461;292;3004967;-31
2023/04/16 00:56:20;;;;;;;16.80;9.60;;;;;;;;;;25471;292;3005952;-35
2023/04/16 00:58:47;;;;;;;17.90;11.60;;;;;;;;;;25308;336;3004826;-33
2023/04/16 01:01:15;;;;;;;27.70;14.90;;;;;;;;;;25597;292;3004791;-33
2023/04/16 01:03:44;;;;;;;24.80;11.70;;;;;;;;;;25573;292;3006144;-33
2023/04/16 01:06:12;;;;;;;19.80;11.40;;;;;;;;;;25250;292;3004941;-32
2023/04/16 01:08:40;;;;;;;19.40;10.80;;;;;;;;;;25530;292;3005038;-30
2023/04/16 01:11:12;;;;;;;38.90;13.40;;;;;;;;;;25597;292;3004928;-31
2023/04/16 01:13:40;;;;;;;22.90;12.90;;;;;;;;;;25257;293;3005083;-31
2023/04/16 01:16:08;;;;;;;24.90;13.00;;;;;;;;;;25557;292;3003564;-30
2023/04/16 01:18:36;;;;;;;21.80;11.90;;;;;;;;;;25269;291;3006030;-30
2023/04/16 01:21:04;;;;;;;24.20;12.60;;;;;;;;;;25243;294;3004994;-31
2023/04/16 01:23:32;;;;;;;27.20;14.10;;;;;;;;;;25390;292;3005018;-31
2023/04/16 01:26:00;;;;;;;29.40;15.20;;;;;;;;;;25624;292;3004410;-30
2023/04/16 01:28:28;;;;;;;23.80;13.40;;;;;;;;;;25628;291;3004912;-35
2023/04/16 01:30:56;;;;;;;28.90;13.80;;;;;;;;;;25631;292;3003674;-34
2023/04/16 01:33:25;;;;;;;25.90;14.20;;;;;;;;;;25503;292;3005056;-36
2023/04/16 01:35:53;;;;;;;20.70;12.20;;;;;;;;;;25420;291;3004778;-34
2023/04/16 01:38:21;;;;;;;31.50;14.50;;;;;;;;;;25643;291;3004031;-34
2023/04/16 01:40:49;;;;;;;33.90;12.90;;;;;;;;;;25665;291;3006786;-29
2023/04/16 01:43:17;;;;;;;22.60;11.50;;;;;;;;;;25649;336;3005972;-34
2023/04/16 01:45:45;;;;;;;20.60;12.10;;;;;;;;;;25667;292;3003770;-31
2023/04/16 01:48:13;;;;;;;30.30;13.90;;;;;;;;;;25524;292;3004874;-30
2023/04/16 01:50:41;;;;;;;25.70;12.70;;;;;;;;;;25597;291;3004045;-30
2023/04/16 01:53:09;;;;;;;48.20;15.30;;;;;;;;;;25609;292;3005914;-34
2023/04/16 01:55:37;;;;;;;24.30;13.70;;;;;;;;;;25661;292;3003751;-34
2023/04/16 01:58:09;;;;;;;24.90;14.30;;;;;;;;;;25551;292;3006409;-29
2023/04/16 02:00:38;;;;;;;31.80;13.60;;;;;;;;;;25264;291;3005177;-34
2023/04/16 02:03:06;;;;;;;25.60;12.20;;;;;;;;;;25677;300;3004795;-29
2023/04/16 02:05:34;;;;;;;18.40;10.20;;;;;;;;;;25673;315;3004969;-30
2023/04/16 02:08:02;;;;;;;17.10;9.80;;;;;;;;;;25622;292;3004113;-29
2023/04/16 02:10:30;;;;;;;19.70;9.10;;;;;;;;;;25609;285;3004185;-30
2023/04/16 02:12:58;;;;;;;20.70;11.30;;;;;;;;;;25416;291;3003815;-30
2023/04/16 02:15:26;;;;;;;20.60;11.50;;;;;;;;;;25647;292;3003676;-34
2023/04/16 02:17:55;;;;;;;14.90;8.60;;;;;;;;;;25695;292;3004999;-31
2023/04/16 02:20:23;;;;;;;18.00;11.00;;;;;;;;;;25262;291;3004960;-31
2023/04/16 02:22:51;;;;;;;21.20;12.70;;;;;;;;;;25528;293;3006554;-34
2023/04/16 02:25:19;;;;;;;21.10;10.70;;;;;;;;;;25670;292;3006759;-31
2023/04/16 02:27:47;;;;;;;28.90;14.50;;;;;;;;;;25689;292;3003649;-31
2023/04/16 02:30:16;;;;;;;28.70;14.90;;;;;;;;;;25569;291;3005212;-34
2023/04/16 02:32:44;;;;;;;31.60;14.70;;;;;;;;;;25258;291;3003638;-30
2023/04/16 02:35:12;;;;;;;20.10;11.30;;;;;;;;;;25406;292;3004100;-31
2023/04/16 02:37:40;;;;;;;19.90;12.40;;;;;;;;;;25616;291;3006305;-34
2023/04/16 02:40:08;;;;;;;29.70;13.00;;;;;;;;;;25696;292;3005005;-31
2023/04/16 02:42:36;;;;;;;18.10;7.90;;;;;;;;;;25367;291;3003681;-34
2023/04/16 02:45:05;;;;;;;43.70;17.20;;;;;;;;;;25720;320;3006401;-30
2023/04/16 02:47:33;;;;;;;39.50;18.10;;;;;;;;;;25259;292;3005210;-34
2023/04/16 02:50:01;;;;;;;33.80;13.40;;;;;;;;;;25663;291;3005253;-31
2023/04/16 02:52:31;;;;;;;19.60;10.90;;;;;;;;;;25626;292;3006385;-31
2023/04/16 02:54:58;;;;;;;18.20;12.20;;;;;;;;;;25253;292;3004981;-30
2023/04/16 02:57:26;;;;;;;39.90;16.90;;;;;;;;;;25471;280;3004938;-33
2023/04/16 02:59:54;;;;;;;56.80;23.20;;;;;;;;;;25697;292;3006202;-34
2023/04/16 03:02:23;;;;;;;53.10;20.80;;;;;;;;;;25564;291;3003674;-31
2023/04/16 03:04:50;;;;;;;61.80;22.30;;;;;;;;;;25334;343;3004805;-34
2023/04/16 03:07:19;;;;;;;60.10;20.60;;;;;;;;;;25572;291;3003608;-34
2023/04/16 03:09:47;;;;;;;54.30;19.80;;;;;;;;;;25644;292;3005944;-34
2023/04/16 03:12:15;;;;;;;39.60;18.60;;;;;;;;;;25621;336;3005136;-34
2023/04/16 03:14:43;;;;;;;40.80;16.00;;;;;;;;;;25510;292;3004949;-34
2023/04/16 03:17:11;;;;;;;29.00;16.00;;;;;;;;;;25728;304;3005421;-32
2023/04/16 03:19:39;;;;;;;38.70;19.10;;;;;;;;;;25574;291;3005034;-34
2023/04/16 03:22:07;;;;;;;40.10;18.40;;;;;;;;;;25650;292;3006806;-31
2023/04/16 03:24:36;;;;;;;48.00;18.70;;;;;;;;;;25588;291;3004937;-34
2023/04/16 03:27:04;;;;;;;79.10;23.70;;;;;;;;;;25263;292;3005960;-33
2023/04/16 03:29:32;;;;;;;48.70;16.40;;;;;;;;;;25548;343;3003577;-34
2023/04/16 03:32:00;;;;;;;32.70;15.50;;;;;;;;;;25640;291;3004941;-35
2023/04/16 03:34:28;;;;;;;31.80;15.00;;;;;;;;;;25647;291;3005973;-31
2023/04/16 03:36:56;;;;;;;16.40;9.10;;;;;;;;;;25658;291;3003553;-30
2023/04/16 03:39:24;;;;;;;28.30;11.60;;;;;;;;;;25577;291;3005264;-34
2023/04/16 03:41:52;;;;;;;23.40;12.70;;;;;;;;;;25560;292;3004989;-31
2023/04/16 03:44:20;;;;;;;22.50;10.50;;;;;;;;;;25487;292;3005031;-34
2023/04/16 03:46:49;;;;;;;39.20;17.40;;;;;;;;;;25251;291;3003784;-32
2023/04/16 03:49:17;;;;;;;33.70;16.90;;;;;;;;;;25397;292;3005966;-31
2023/04/16 03:51:45;;;;;;;37.80;18.90;;;;;;;;;;25584;344;3006151;-34
2023/04/16 03:54:13;;;;;;;42.40;15.50;;;;;;;;;;25241;292;3004279;-31
2023/04/16 03:56:41;;;;;;;32.70;14.00;;;;;;;;;;25611;291;3003860;-31
2023/04/16 03:59:09;;;;;;;36.70;15.80;;;;;;;;;;25353;292;3005005;-34
2023/04/16 04:01:37;;;;;;;34.10;15.20;;;;;;;;;;25546;292;3006288;-32
2023/04/16 04:04:05;;;;;;;30.40;13.40;;;;;;;;;;25647;291;3005568;-31
2023/04/16 04:06:34;;;;;;;38.50;16.80;;;;;;;;;;25646;332;3003670;-35
2023/04/16 04:09:02;;;;;;;33.00;16.60;;;;;;;;;;25246;292;3003520;-30
2023/04/16 04:11:30;;;;;;;37.70;15.40;;;;;;;;;;25457;292;3006144;-34
2023/04/16 04:13:58;;;;;;;29.20;15.70;;;;;;;;;;25560;292;3005901;-32
2023/04/16 04:16:26;;;;;;;32.80;13.90;;;;;;;;;;25612;293;3006335;-32
2023/04/16 04:18:54;;;;;;;42.50;14.40;;;;;;;;;;25627;293;3004770;-35
2023/04/16 04:21:22;;;;;;;20.70;10.70;;;;;;;;;;25517;292;3005043;-35
2023/04/16 04:23:50;;;;;;;22.20;14.40;;;;;;;;;;25651;292;3005023;-31
2023/04/16 04:26:18;;;;;;;42.40;12.60;;;;;;;;;;25648;291;3004992;-35
2023/04/16 04:28:46;;;;;;;47.70;15.10;;;;;;;;;;25596;343;3005924;-35
2023/04/16 04:31:14;;;;;;;26.10;14.10;;;;;;;;;;25639;291;3004765;-35
2023/04/16 04:33:43;;;;;;;22.70;10.60;;;;;;;;;;25663;292;3004093;-34
2023/04/16 04:36:11;;;;;;;34.80;13.20;;;;;;;;;;25446;292;3004857;-31
2023/04/16 05:15:20;;;;;;;41.00;18.00;;;;;;;-101.42;19.20;19843.29;19557;300;8046647;-30
2023/04/16 05:17:46;;;;;;;37.50;16.40;;;;;;;-128.00;-1.00;-1.00;18574;301;7504740;-36
2023/04/16 05:20:13;;;;;;;42.50;16.20;;;;;;;-128.00;-1.00;-1.00;18821;291;7504639;-32
2023/04/16 05:22:39;;;;;;;36.90;14.90;;;;;;;-128.00;-1.00;-1.00;18867;298;7505275;-36
2023/04/16 05:25:05;;;;;;;39.00;13.20;;;;;;;-128.00;-1.00;-1.00;18844;298;7505110;-36
2023/04/16 05:27:32;;;;;;;32.90;16.90;;;;;;;-128.00;-1.00;-1.00;18887;298;7505111;-32
2023/04/16 05:29:58;;;;;;;40.40;16.90;;;;;;;-128.00;-1.00;-1.00;18853;322;7504094;-36
2023/04/16 05:32:25;;;;;;;28.80;13.30;;;;;;;-128.00;-1.00;-1.00;18832;300;7505123;-34
2023/04/16 05:34:50;;;;;;;32.60;17.00;;;;;;;-128.00;-1.00;-1.00;18435;299;7505875;-31
2023/04/16 05:37:16;;;;;;;22.50;12.70;;;;;;;-128.00;-1.00;-1.00;18471;298;7505133;-31
2023/04/16 05:39:42;;;;;;;35.20;17.30;;;;;;;-128.00;-1.00;-1.00;18843;298;7504972;-35
2023/04/16 05:42:08;;;;;;;28.40;16.30;;;;;;;-128.00;-1.00;-1.00;18863;351;7504712;-32
2023/04/16 05:44:34;;;;;;;30.80;16.30;;;;;;;-128.00;-1.00;-1.00;18845;351;7505418;-31
2023/04/16 05:47:01;;;;;;;35.00;18.40;;;;;;;-128.00;-1.00;-1.00;18855;298;7505286;-34
2023/04/16 05:49:27;;;;;;;32.90;17.10;;;;;;;-128.00;-1.00;-1.00;18862;298;7504847;-36
2023/04/16 05:51:53;;;;;;;38.40;19.10;;;;;;;-128.00;-1.00;-1.00;18864;310;7505132;-32
2023/04/16 05:54:19;;;;;;;40.30;18.60;;;;;;;-128.00;-1.00;-1.00;18871;350;7505063;-35
2023/04/16 05:56:45;;;;;;;31.60;13.20;;;;;;;-128.00;-1.00;-1.00;18867;343;7505017;-31
2023/04/16 05:59:11;;;;;;;27.00;13.70;;;;;;;-128.00;-1.00;-1.00;18866;343;7504275;-31
2023/04/16 06:01:37;;;;;;;20.20;12.10;;;;;;;-128.00;-1.00;-1.00;18873;298;7504361;-32
2023/04/16 06:04:04;;;;;;;26.20;14.90;;;;;;;-128.00;-1.00;-1.00;18848;311;7505418;-36
2023/04/16 06:06:30;;;;;;;31.80;16.80;;;;;;;-128.00;-1.00;-1.00;18832;308;7505990;-31
2023/04/16 06:08:56;;;;;;;25.70;15.90;;;;;;;-128.00;-1.00;-1.00;18858;298;7505213;-31
2023/04/16 06:11:22;;;;;;;21.20;13.10;;;;;;;-128.00;-1.00;-1.00;18856;322;7504805;-34
2023/04/16 06:13:49;;;;;;;25.40;15.50;;;;;;;-128.00;-1.00;-1.00;18863;299;7506006;-31
2023/04/16 06:16:15;;;;;;;24.70;13.70;;;;;;;-128.00;-1.00;-1.00;18866;298;7504900;-31
2023/04/16 06:18:42;;;;;;;25.60;14.00;;;;;;;-128.00;-1.00;-1.00;18458;343;7505687;-34
2023/04/16 06:21:07;;;;;;;28.50;14.40;;;;;;;-128.00;-1.00;-1.00;18423;315;7505979;-37
2023/04/16 06:23:33;;;;;;;28.80;13.60;;;;;;;-128.00;-1.00;-1.00;18472;298;7504279;-35
2023/04/16 06:25:59;;;;;;;23.80;14.70;;;;;;;-128.00;-1.00;-1.00;18860;338;7505206;-31
2023/04/16 06:28:25;;;;;;;27.20;15.50;;;;;;;-128.00;-1.00;-1.00;18855;298;7504594;-33
2023/04/16 06:30:52;;;;;;;30.40;17.40;;;;;;;-128.00;-1.00;-1.00;18856;299;7504956;-34
2023/04/16 06:33:18;;;;;;;27.00;15.00;;;;;;;-128.00;-1.00;-1.00;18837;338;7505860;-31
2023/04/16 06:35:44;;;;;;;25.50;15.40;;;;;;;-128.00;-1.00;-1.00;18850;298;7504621;-32
2023/04/16 06:38:11;;;;;;;22.90;13.90;;;;;;;-128.00;-1.00;-1.00;18850;298;7505200;-30
2023/04/16 06:40:37;;;;;;;30.40;16.00;;;;;;;-128.00;-1.00;-1.00;18860;298;7506116;-30
2023/04/16 06:43:03;;;;;;;30.00;16.00;;;;;;;-128.00;-1.00;-1.00;18831;298;7504993;-31
2023/04/16 06:45:29;;;;;;;23.50;12.00;;;;;;;-128.00;-1.00;-1.00;18862;286;7504260;-32
2023/04/16 06:47:57;;;;;;;25.60;13.80;;;;;;;-128.00;-1.00;-1.00;18846;298;7504689;-35
2023/04/16 06:50:27;;;;;;;30.90;15.40;;;;;;;-128.00;-1.00;-1.00;18432;298;7504963;-35
2023/04/16 06:52:54;;;;;;;30.00;16.20;;;;;;;-128.00;-1.00;-1.00;18467;298;7505187;-35
2023/04/16 06:55:19;;;;;;;27.40;15.10;;;;;;;-128.00;-1.00;-1.00;18457;350;7505232;-34
2023/04/16 06:57:45;;;;;;;23.40;12.70;;;;;;;-128.00;-1.00;-1.00;18448;342;7504434;-34
2023/04/16 07:00:11;;;;;;;31.70;17.70;;;;;;;-128.00;-1.00;-1.00;18448;350;7504868;-31
2023/04/16 07:02:37;;;;;;;20.10;12.70;;;;;;;-128.00;-1.00;-1.00;18459;299;7504417;-35
2023/04/16 07:05:03;;;;;;;27.50;14.70;;;;;;;-128.00;-1.00;-1.00;18450;298;7504856;-31
2023/04/16 07:07:29;;;;;;;29.90;16.80;;;;;;;-128.00;-1.00;-1.00;18469;290;7504371;-33
2023/04/16 07:09:55;;;;;;;30.90;16.10;;;;;;;-128.00;-1.00;-1.00;18446;298;7504484;-30
2023/04/16 07:12:21;;;;;;;28.70;14.60;;;;;;;-128.00;-1.00;-1.00;18443;298;7505577;-31
2023/04/16 07:14:47;;;;;;;26.80;14.80;;;;;;;-128.00;-1.00;-1.00;18858;298;7504684;-34
2023/04/16 07:17:13;;;;;;;29.50;14.30;;;;;;;-128.00;-1.00;-1.00;18875;298;7505022;-32
2023/04/16 07:19:39;;;;;;;25.60;15.40;;;;;;;-128.00;-1.00;-1.00;18434;298;7504858;-33
2023/04/16 07:22:06;;;;;;;29.20;17.20;;;;;;;-128.00;-1.00;-1.00;18868;298;7504886;-33
2023/04/16 07:24:32;;;;;;;22.30;14.50;;;;;;;-128.00;-1.00;-1.00;18858;298;7504566;-32
2023/04/16 07:26:58;;;;;;;27.80;15.20;;;;;;;-128.00;-1.00;-1.00;18851;298;7505229;-31
2023/04/16 07:29:24;;;;;;;25.80;14.80;;;;;;;-128.00;-1.00;-1.00;18861;350;7506819;-35
2023/04/16 07:31:50;;;;;;;21.60;12.30;;;;;;;-128.00;-1.00;-1.00;18848;298;7504601;-35
2023/04/16 07:34:17;;;;;;;20.50;13.50;;;;;;;-128.00;-1.00;-1.00;18875;298;7505055;-31
2023/04/16 07:36:43;;;;;;;19.60;12.90;;;;;;;-128.00;-1.00;-1.00;18865;350;7504297;-34
2023/04/16 07:39:10;;;;;;;23.70;14.90;;;;;;;-128.00;-1.00;-1.00;18891;321;7504292;-34
2023/04/16 07:41:36;;;;;;;29.20;12.50;;;;;;;-128.00;-1.00;-1.00;18458;338;7506068;-31
2023/04/16 07:44:02;;;;;;;24.60;14.50;;;;;;;-128.00;-1.00;-1.00;18436;288;7504641;-31
2023/04/16 07:46:27;;;;;;;28.60;15.60;;;;;;;-128.00;-1.00;-1.00;18451;327;7505509;-31
2023/04/16 07:48:54;;;;;;;18.00;12.60;;;;;;;-128.00;-1.00;-1.00;18859;298;7504285;-32
2023/04/16 07:51:20;;;;;;;23.00;13.30;;;;;;;-128.00;-1.00;-1.00;18881;298;7506411;-32
2023/04/16 07:53:46;;;;;;;20.20;13.20;;;;;;;-128.00;-1.00;-1.00;18869;338;7504849;-34
2023/04/16 07:56:12;;;;;;;21.40;13.70;;;;;;;-128.00;-1.00;-1.00;18855;298;7504322;-31
2023/04/16 07:58:38;;;;;;;107.00;46.80;;;;;;;-128.00;-1.00;-1.00;18838;298;7507071;-34
2023/04/16 08:01:05;;;;;;;109.80;44.80;;;;;;;-128.00;-1.00;-1.00;18835;298;7504480;-34
2023/04/16 08:03:31;;;;;;;32.90;18.00;;;;;;;-128.00;-1.00;-1.00;18868;298;7504854;-31
2023/04/16 08:05:58;;;;;;;92.90;39.60;;;;;;;-128.00;-1.00;-1.00;18846;298;7505562;-34
2023/04/16 08:08:24;;;;;;;43.90;20.60;;;;;;;-128.00;-1.00;-1.00;18902;298;7504359;-30
2023/04/16 08:10:54;;;;;;;22.90;12.20;;;;;;;-128.00;-1.00;-1.00;18863;298;7504577;-34
2023/04/16 08:13:22;;;;;;;18.60;12.10;;;;;;;-128.00;-1.00;-1.00;18463;298;7505108;-35
2023/04/16 08:15:48;;;;;;;20.80;13.50;;;;;;;-128.00;-1.00;-1.00;18454;298;7504624;-35
2023/04/16 08:18:14;;;;;;;18.40;11.50;;;;;;;-128.00;-1.00;-1.00;18452;286;7505683;-35
2023/04/16 08:20:41;;;;;;;19.00;10.60;;;;;;;-128.00;-1.00;-1.00;18467;298;7504674;-32
2023/04/16 08:23:07;;;;;;;11.30;8.60;;;;;;;-128.00;-1.00;-1.00;18442;287;7504886;-35
2023/04/16 08:25:34;;;;;;;21.90;13.60;;;;;;;-128.00;-1.00;-1.00;18864;321;7504156;-31
2023/04/16 08:27:59;;;;;;;21.30;12.60;;;;;;;-128.00;-1.00;-1.00;18467;298;7504954;-35
2023/04/16 08:30:25;;;;;;;28.60;15.30;;;;;;;-128.00;-1.00;-1.00;18478;298;7504739;-36
2023/04/16 08:32:51;;;;;;;28.90;14.30;;;;;;;-128.00;-1.00;-1.00;18849;323;7504771;-32
2023/04/16 08:35:17;;;;;;;27.00;14.50;;;;;;;-128.00;-1.00;-1.00;18872;298;7504690;-33
2023/04/16 08:37:44;;;;;;;22.60;13.30;;;;;;;-128.00;-1.00;-1.00;18866;350;7504284;-35
2023/04/16 08:40:10;;;;;;;24.70;16.40;;;;;;;-128.00;-1.00;-1.00;18883;298;7504832;-32
2023/04/16 08:42:44;;;;;;;27.70;15.80;;;;;;;-128.00;-1.00;-1.00;18438;298;7505923;-34
2023/04/16 08:45:16;;;;;;;25.40;12.50;;;;;;;-128.00;-1.00;-1.00;18428;300;7505134;-34
2023/04/16 08:47:45;;;;;;;17.70;10.70;;;;;;;-128.00;-1.00;-1.00;18476;298;7505488;-34
2023/04/16 08:50:11;;;;;;;14.00;9.80;;;;;;;-128.00;-1.00;-1.00;18497;298;7505608;-34
2023/04/16 08:52:37;;;;;;;16.30;10.60;;;;;;;-128.00;-1.00;-1.00;18430;298;7506110;-31
2023/04/16 08:55:07;;;;;;;18.90;13.60;;;;;;;-128.00;-1.00;-1.00;18443;299;7504151;-31
2023/04/16 08:57:38;;;;;;;24.60;14.00;;;;;;;-128.00;-1.00;-1.00;18448;319;7504714;-31
2023/04/16 09:00:06;;;;;;;16.80;11.10;;;;;;;-128.00;-1.00;-1.00;18470;309;7504596;-32
2023/04/16 09:02:32;;;;;;;22.50;12.40;;;;;;;-128.00;-1.00;-1.00;18470;321;7506195;-35
2023/04/16 09:04:59;;;;;;;15.20;9.40;;;;;;;-128.00;-1.00;-1.00;18470;298;7504555;-35
2023/04/16 09:07:24;;;;;;;17.30;12.10;;;;;;;-128.00;-1.00;-1.00;18475;298;7505286;-35
2023/04/16 09:09:51;;;;;;;19.20;12.10;;;;;;;-128.00;-1.00;-1.00;18453;298;7506044;-32
2023/04/16 09:12:17;;;;;;;20.30;12.90;;;;;;;-128.00;-1.00;-1.00;18890;326;7505048;-33
2023/04/16 09:14:47;;;;;;;19.90;12.90;;;;;;;-128.00;-1.00;-1.00;18879;342;7505583;-31
2023/04/16 09:17:13;;;;;;;17.70;11.90;;;;;;;-128.00;-1.00;-1.00;18459;298;7506493;-35
2023/04/16 09:19:39;;;;;;;16.70;11.30;;;;;;;-128.00;-1.00;-1.00;18865;298;7504805;-35
2023/04/16 09:22:06;;;;;;;12.70;9.20;;;;;;;-128.00;-1.00;-1.00;18851;298;7505212;-32
2023/04/16 09:24:33;;;;;;;16.00;10.50;;;;;;;-128.00;-1.00;-1.00;18882;310;7504647;-31
2023/04/16 09:26:58;;;;;;;18.90;12.20;;;;;;;-128.00;-1.00;-1.00;18475;338;7505127;-32
2023/04/16 09:29:37;;;;;;;16.30;9.90;;;;;;;-128.00;-1.00;-1.00;18440;298;7504886;-36
2023/04/16 09:32:04;;;;;;;10.50;9.10;;;;;;;-128.00;-1.00;-1.00;18470;298;7504499;-32
2023/04/16 09:34:33;;;;;;;20.90;11.00;;;;;;;-128.00;-1.00;-1.00;18468;298;7505946;-36
2023/04/16 09:37:15;;;;;;;14.20;9.60;;;;;;;-128.00;-1.00;-1.00;18468;338;7506192;-35
2023/04/16 09:39:41;;;;;;;;;;;;;;;-128.00;-1.00;-1.00;18456;298;7504554;-32
2023/04/16 09:42:07;;;;;;;9.80;7.30;;;;;;;-128.00;-1.00;-1.00;18436;298;7504826;-33
2023/04/16 09:44:37;;;;;;;18.30;11.00;;;;;;;-128.00;-1.00;-1.00;18860;299;7504643;-32
2023/04/16 09:47:06;;;;;;;11.50;8.60;;;;;;;-128.00;-1.00;-1.00;18473;298;7506235;-36
2023/04/16 09:49:34;;;;;;;9.60;7.90;;;;;;;-128.00;-1.00;-1.00;18456;298;7504727;-31
2023/04/16 09:52:01;;;;;;;12.10;8.80;;;;;;;-128.00;-1.00;-1.00;18426;301;7505848;-35
2023/04/16 09:54:26;;;;;;;13.20;10.10;;;;;;;-128.00;-1.00;-1.00;18468;302;7506038;-32
2023/04/16 09:56:55;;;;;;;17.40;11.40;;;;;;;-128.00;-1.00;-1.00;18431;350;7505835;-32
2023/04/16 09:59:21;;;;;;;15.80;11.40;;;;;;;-128.00;-1.00;-1.00;18448;309;7506026;-35
2023/04/16 10:01:53;;;;;;;10.60;8.60;;;;;;;-128.00;-1.00;-1.00;18477;298;7504055;-33
2023/04/16 10:04:21;;;;;;;13.80;10.60;;;;;;;-128.00;-1.00;-1.00;18452;299;7504545;-35
2023/04/16 10:07:03;;;;;;;12.00;8.80;;;;;;;-128.00;-1.00;-1.00;18464;342;7506941;-35
2023/04/16 10:09:36;;;;;;;14.10;10.70;;;;;;;-128.00;-1.00;-1.00;18468;298;7504492;-33
2023/04/16 10:12:01;;;;;;;9.80;7.70;;;;;;;-128.00;-1.00;-1.00;18504;298;7505310;-36
2023/04/16 10:14:28;;;;;;;15.00;10.40;;;;;;;-128.00;-1.00;-1.00;18855;350;7505468;-35
2023/04/16 10:16:57;;;;;;;16.20;11.20;;;;;;;-128.00;-1.00;-1.00;18854;298;7506042;-35
2023/04/16 10:19:24;;;;;;;15.50;11.30;;;;;;;-128.00;-1.00;-1.00;18453;298;7504684;-32
2023/04/16 10:21:49;;;;;;;13.60;9.70;;;;;;;-128.00;-1.00;-1.00;18435;298;7504798;-35
2023/04/16 10:24:16;;;;;;;10.30;9.00;;;;;;;-128.00;-1.00;-1.00;18456;299;7504830;-35
2023/04/16 10:26:42;;;;;;;11.30;9.30;;;;;;;-128.00;-1.00;-1.00;18481;298;7504707;-31
2023/04/16 10:29:08;;;;;;;12.50;7.80;;;;;;;-128.00;-1.00;-1.00;18455;346;7506624;-34
2023/04/16 10:31:35;;;;;;;16.40;11.60;;;;;;;-128.00;-1.00;-1.00;18450;298;7504747;-31
2023/04/16 10:34:02;;;;;;;12.90;9.60;;;;;;;-128.00;-1.00;-1.00;18435;298;7505288;-32
2023/04/16 10:36:27;;;;;;;12.50;10.70;;;;;;;-128.00;-1.00;-1.00;18462;342;7506136;-32
2023/04/16 10:38:57;;;;;;;12.90;9.70;;;;;;;-128.00;-1.00;-1.00;18465;309;7505029;-35
2023/04/16 10:41:24;;;;;;;13.50;9.60;;;;;;;-128.00;-1.00;-1.00;18456;350;7504370;-32
2023/04/16 10:43:50;;;;;;;14.10;9.60;;;;;;;-128.00;-1.00;-1.00;18461;298;7504110;-33
2023/04/16 10:46:25;;;;;;;11.70;8.80;;;;;;;-128.00;-1.00;-1.00;18465;298;7504745;-32
2023/04/16 10:48:54;;;;;;;20.80;10.90;;;;;;;-128.00;-1.00;-1.00;18448;350;7504432;-35
2023/04/16 10:51:33;;;;;;;11.50;8.80;;;;;;;-128.00;-1.00;-1.00;18460;298;7506299;-31
2023/04/16 10:54:04;;;;;;;10.80;8.20;;;;;;;-128.00;-1.00;-1.00;18488;350;7505990;-31
2023/04/16 10:56:34;;;;;;;12.90;7.00;;;;;;;-128.00;-1.00;-1.00;18471;298;7505230;-32
2023/04/16 10:59:00;;;;;;;14.50;10.50;;;;;;;-128.00;-1.00;-1.00;18445;298;7504290;-35
2023/04/16 11:01:36;;;;;;;13.80;10.00;;;;;;;-128.00;-1.00;-1.00;18465;302;7504527;-32
2023/04/16 11:44:53;;;;;;;12.30;9.90;;;;;;;-99.12;11.92;19894.80;19561;294;8044750;-35
2023/04/16 11:47:19;;;;;;;11.80;8.20;;;;;;;-128.00;-1.00;-1.00;18164;295;7506368;-36
2023/04/16 11:49:46;;;;;;;7.20;6.50;;;;;;;-128.00;-1.00;-1.00;18481;296;7505406;-36
2023/04/16 11:52:11;;;;;;;9.10;8.00;;;;;;;-128.00;-1.00;-1.00;18494;295;7504794;-35
2023/04/16 11:54:38;;;;;;;9.40;7.40;;;;;;;-128.00;-1.00;-1.00;18862;343;7504247;-35
2023/04/16 11:57:04;;;;;;;11.00;9.30;;;;;;;-128.00;-1.00;-1.00;18866;346;7505721;-35
2023/04/16 11:59:30;;;;;;;9.90;8.00;;;;;;;-128.00;-1.00;-1.00;18861;295;7505005;-35
2023/04/16 12:01:56;;;;;;;9.90;7.90;;;;;;;-128.00;-1.00;-1.00;18889;294;7504547;-32
2023/04/16 12:04:24;;;;;;;12.70;8.50;;;;;;;-128.00;-1.00;-1.00;18911;294;7504915;-35
2023/04/16 12:07:09;;;;;;;7.90;5.70;;;;;;;-128.00;-1.00;-1.00;18490;347;7505934;-35
2023/04/16 12:09:36;;;;;;;8.00;6.90;;;;;;;-128.00;-1.00;-1.00;18483;294;7504449;-32
2023/04/16 12:12:02;;;;;;;8.00;6.30;;;;;;;-128.00;-1.00;-1.00;18475;287;7504423;-32
2023/04/16 12:14:28;;;;;;;9.50;8.10;;;;;;;-128.00;-1.00;-1.00;18482;287;7505659;-32
2023/04/16 12:16:54;;;;;;;5.00;4.60;;;;;;;-128.00;-1.00;-1.00;18476;295;7506411;-35
2023/04/16 12:19:20;;;;;;;10.90;8.40;;;;;;;-128.00;-1.00;-1.00;18460;294;7505046;-36
2023/04/16 12:21:47;;;;;;;12.00;6.40;;;;;;;-128.00;-1.00;-1.00;18476;294;7504888;-36
2023/04/16 12:24:16;;;;;;;8.30;6.20;;;;;;;-128.00;-1.00;-1.00;18446;294;7504928;-35
2023/04/16 12:26:46;;;;;;;11.60;7.30;;;;;;;-128.00;-1.00;-1.00;18468;296;7504734;-36
2023/04/16 12:29:16;;;;;;;10.10;7.70;;;;;;;-128.00;-1.00;-1.00;18487;294;7504492;-36
2023/04/16 12:31:42;;;;;;;6.40;5.80;;;;;;;-128.00;-1.00;-1.00;18464;310;7504411;-32
2023/04/16 12:34:09;;;;;;;10.90;7.70;;;;;;;-128.00;-1.00;-1.00;18482;314;7507012;-32
2023/04/16 12:36:35;;;;;;;7.70;7.00;;;;;;;-128.00;-1.00;-1.00;18492;294;7506263;-32
2023/04/16 12:39:02;;;;;;;9.30;8.00;;;;;;;-128.00;-1.00;-1.00;18478;294;7504604;-35
2023/04/16 12:41:28;;;;;;;12.10;9.30;;;;;;;-128.00;-1.00;-1.00;18501;307;7504992;-35
2023/04/16 12:44:13;;;;;;;9.60;7.80;;;;;;;-128.00;-1.00;-1.00;18891;346;7504304;-35
2023/04/16 12:46:40;;;;;;;9.10;7.50;;;;;;;-128.00;-1.00;-1.00;18472;288;7504537;-32
2023/04/16 12:49:06;;;;;;;9.40;7.10;;;;;;;-128.00;-1.00;-1.00;18453;336;7504897;-31
2023/04/16 12:51:32;;;;;;;8.90;4.90;;;;;;;-128.00;-1.00;-1.00;18453;295;7504611;-35
2023/04/16 12:53:59;;;;;;;9.20;6.40;;;;;;;-128.00;-1.00;-1.00;18506;295;7504873;-32
2023/04/16 12:56:25;;;;;;;13.50;7.00;;;;;;;-128.00;-1.00;-1.00;18481;295;7505001;-32
2023/04/16 12:58:50;;;;;;;14.20;8.30;;;;;;;-128.00;-1.00;-1.00;18492;303;7504686;-35
2023/04/16 13:01:19;;;;;;;10.80;7.80;;;;;;;-128.00;-1.00;-1.00;18478;295;7506238;-33
2023/04/16 13:03:45;;;;;;;10.90;7.40;;;;;;;-128.00;-1.00;-1.00;18469;295;7504717;-32
2023/04/16 13:06:12;;;;;;;9.10;5.80;;;;;;;-128.00;-1.00;-1.00;18484;295;7504900;-32
2023/04/16 13:08:38;;;;;;;6.60;5.30;;;;;;;-128.00;-1.00;-1.00;18475;298;7506260;-32
2023/04/16 13:11:03;;;;;;;11.00;4.80;;;;;;;-128.00;-1.00;-1.00;18465;295;7504763;-36
2023/04/16 13:13:30;;;;;;;6.20;4.60;;;;;;;-128.00;-1.00;-1.00;18874;295;7504579;-35
2023/04/16 13:15:56;;;;;;;9.10;5.80;;;;;;;-128.00;-1.00;-1.00;18864;336;7505928;-34
2023/04/16 13:18:23;;;;;;;7.70;5.70;;;;;;;-128.00;-1.00;-1.00;18888;295;7505095;-34
2023/04/16 13:20:49;;;;;;;6.90;5.70;;;;;;;-128.00;-1.00;-1.00;18493;295;7506045;-35
2023/04/16 13:23:15;;;;;;;6.20;5.30;;;;;;;-128.00;-1.00;-1.00;18913;295;7504407;-35
2023/04/16 13:25:41;;;;;;;7.30;5.00;;;;;;;-128.00;-1.00;-1.00;18881;283;7505342;-34
2023/04/16 13:28:07;;;;;;;5.90;4.70;;;;;;;-128.00;-1.00;-1.00;18874;295;7505010;-34
2023/04/16 13:30:34;;;;;;;9.90;7.00;;;;;;;-128.00;-1.00;-1.00;18867;295;7504549;-34
2023/04/16 13:33:00;;;;;;;8.00;5.90;;;;;;;-128.00;-1.00;-1.00;18894;335;7504243;-31
2023/04/16 13:35:26;;;;;;;6.50;5.90;;;;;;;-128.00;-1.00;-1.00;18901;339;7504567;-31